This is the latest recevied weather packets stored in our database for station/object VA7NIC-10. If no packets are shown the sender has not sent any weather packets the latest 10 day(s).
| Time | Temp. | Humidity | Pressure | Rain* | Wind** | Luminosity | Snow |
|---|---|---|---|---|---|---|---|
| 1777442822 | 10° C | 82% | 1023.7 hPa | 0 mm | - | - | - |
| 1777441922 | 10.56° C | 81% | 1023.7 hPa | 0 mm | - | - | - |
| 1777441022 | 10.56° C | 81% | 1023.7 hPa | 0 mm | - | - | - |
| 1777440122 | 10.56° C | 81% | 1023.5 hPa | 0 mm | - | - | - |
| 1777439221 | 10.56° C | 81% | 1023.4 hPa | 0 mm | - | - | - |
| 1777438321 | 11.11° C | 79% | 1023.2 hPa | 0 mm | - | - | - |
| 1777437421 | 11.67° C | 78% | 1023 hPa | 0 mm | - | - | - |
| 1777436521 | 11.67° C | 77% | 1022.8 hPa | 0 mm | - | - | - |
| 1777435621 | 12.22° C | 75% | 1022.4 hPa | 0 mm | - | - | - |
| 1777434721 | 12.78° C | 74% | 1022.3 hPa | 0 mm | - | - | - |
| 1777433821 | 12.78° C | 72% | 1022.2 hPa | 0 mm | - | - | - |
| 1777432021 | 13.33° C | 70% | 1022.1 hPa | 0 mm | - | - | - |
| 1777430222 | 14.44° C | 69% | 1021.9 hPa | 0 mm | - | - | - |
| 1777429322 | 14.44° C | 67% | 1021.9 hPa | 0 mm | - | - | - |
| 1777428422 | 15° C | 66% | 1021.7 hPa | 0 mm | - | - | - |
| 1777426622 | 15° C | 66% | 1021.3 hPa | 0 mm | - | - | - |
| 1777414022 | 15° C | 67% | 1021.2 hPa | 0 mm | - | - | - |
| 1777413122 | 15° C | 66% | 1021.1 hPa | 0 mm | - | - | - |
| 1777412222 | 15.56° C | 65% | 1021 hPa | 0 mm | - | - | - |
| 1777408621 | 15.56° C | 65% | 1020.5 hPa | 0 mm | - | - | - |
| 1777404122 | 13.33° C | 76% | 1020.8 hPa | 0 mm | - | - | - |
| 1777403222 | 13.33° C | 77% | 1020.8 hPa | 0 mm | - | - | - |
| 1777400522 | 12.78° C | 79% | 1020.6 hPa | 0 mm | - | - | - |
* Rain latest hour (hover to see other rain measurements)
** Current wind speed in m/s (hover to see current wind gust speed)